createdAt,value
2023-04-20T00:02:04.428Z,6.70
2023-04-20T00:04:30.887Z,6.10
2023-04-20T00:06:58.626Z,6.50
2023-04-20T00:09:27.012Z,5.77
2023-04-20T00:11:53.347Z,6.53
2023-04-20T00:14:20.127Z,6.03
2023-04-20T00:16:46.651Z,6.50
2023-04-20T00:19:13.004Z,8.17
2023-04-20T00:21:39.393Z,6.37
2023-04-20T00:24:06.623Z,8.00
2023-04-20T00:26:34.340Z,6.37
2023-04-20T00:29:01.132Z,6.30
2023-04-20T00:31:27.620Z,5.87
2023-04-20T00:33:54.068Z,5.23
2023-04-20T00:36:20.562Z,5.20
2023-04-20T00:38:46.895Z,5.93
2023-04-20T00:41:13.615Z,6.40
2023-04-20T00:43:57.767Z,6.13
2023-04-20T00:46:24.710Z,6.00
2023-04-20T00:48:52.619Z,6.37
2023-04-20T00:51:21.141Z,5.80
2023-04-20T00:53:47.766Z,5.70
2023-04-20T00:56:15.099Z,6.53
2023-04-20T00:58:42.520Z,5.83
2023-04-20T01:01:10.598Z,5.90
2023-04-20T01:03:39.709Z,6.20
2023-04-20T01:06:07.288Z,5.40
2023-04-20T01:08:33.612Z,6.77
2023-04-20T01:11:03.480Z,6.20
2023-04-20T01:13:30.299Z,6.00
2023-04-20T01:16:00.299Z,7.50
2023-04-20T01:18:26.958Z,7.03
2023-04-20T01:20:53.309Z,6.40
2023-04-20T01:23:20.228Z,6.80
2023-04-20T01:25:46.681Z,5.37
2023-04-20T01:28:14.326Z,6.43
2023-04-20T01:30:40.767Z,5.80
2023-04-20T01:33:07.175Z,5.40
2023-04-20T01:35:33.600Z,5.60
2023-04-20T01:38:01.416Z,5.53
2023-04-20T01:40:27.776Z,5.07
2023-04-20T01:42:54.096Z,5.90
2023-04-20T01:45:22.275Z,6.47
2023-04-20T01:47:48.684Z,5.43
2023-04-20T01:50:15.121Z,5.80
2023-04-20T01:52:41.468Z,5.37
2023-04-20T01:55:11.511Z,7.00
2023-04-20T01:57:37.883Z,7.13
2023-04-20T02:00:04.867Z,6.60
2023-04-20T02:02:40.707Z,5.30
2023-04-20T02:05:07.869Z,5.83
2023-04-20T02:07:34.385Z,5.60
2023-04-20T02:10:00.706Z,6.23
2023-04-20T02:12:27.042Z,4.77
2023-04-20T02:14:53.417Z,6.00
2023-04-20T02:17:21.313Z,6.07
2023-04-20T02:19:47.854Z,6.57
2023-04-20T02:22:14.219Z,5.47
2023-04-20T02:24:41.357Z,6.17
2023-04-20T02:27:07.718Z,5.87
2023-04-20T02:29:34.121Z,6.60
2023-04-20T02:32:00.467Z,5.63
2023-04-20T02:34:27.003Z,5.63
2023-04-20T02:36:56.511Z,5.67
2023-04-20T02:39:22.856Z,5.57
2023-04-20T02:41:49.185Z,5.80
2023-04-20T02:44:16.412Z,6.13
2023-04-20T02:46:42.819Z,5.77
2023-04-20T02:49:09.380Z,6.53
2023-04-20T02:51:40.248Z,5.77
2023-04-20T02:54:06.626Z,8.27
2023-04-20T02:56:32.990Z,6.70
2023-04-20T02:59:04.496Z,6.63
2023-04-20T03:01:57.365Z,6.57
2023-04-20T03:04:26.350Z,7.17
2023-04-20T03:07:04.005Z,6.43
2023-04-20T03:09:33.615Z,5.93
2023-04-20T03:12:18.589Z,7.70
2023-04-20T03:15:17.085Z,7.90
2023-04-20T03:17:58.164Z,6.90
2023-04-20T03:20:24.913Z,6.93
2023-04-20T03:22:51.443Z,7.83
2023-04-20T03:25:20.272Z,11.70
2023-04-20T03:28:00.544Z,7.57
2023-04-20T03:30:27.071Z,8.43
2023-04-20T03:33:01.254Z,8.87
2023-04-20T03:35:28.082Z,8.13
2023-04-20T03:37:54.555Z,8.73
2023-04-20T03:40:21.463Z,8.27
2023-04-20T03:42:47.803Z,8.07
2023-04-20T03:45:14.262Z,7.93
2023-04-20T03:47:41.837Z,8.33
2023-04-20T03:50:08.639Z,7.60
2023-04-20T03:52:35.192Z,8.57
2023-04-20T03:55:05.157Z,12.00
2023-04-20T03:57:33.663Z,8.73
2023-04-20T04:00:01.537Z,8.43
2023-04-20T04:02:35.455Z,8.40
2023-04-20T04:05:03.440Z,7.70
2023-04-20T04:07:29.942Z,8.33
2023-04-20T04:09:56.453Z,9.03
2023-04-20T04:12:22.839Z,7.17
2023-04-20T04:14:50.124Z,8.50
2023-04-20T04:17:18.977Z,9.40
2023-04-20T04:19:45.568Z,8.53
2023-04-20T04:22:11.992Z,7.53
2023-04-20T04:24:48.695Z,8.17
2023-04-20T04:27:18.145Z,8.17
2023-04-20T04:29:52.700Z,7.83
2023-04-20T04:32:20.547Z,7.57
2023-04-20T04:34:48.158Z,7.10
2023-04-20T04:37:14.832Z,7.83
2023-04-20T04:39:47.338Z,7.73
2023-04-20T04:42:20.045Z,8.20
2023-04-20T04:44:47.087Z,8.07
2023-04-20T04:47:21.798Z,7.73
2023-04-20T04:49:48.651Z,7.80
2023-04-20T04:52:15.077Z,7.77
2023-04-20T04:54:41.460Z,7.97
2023-04-20T04:57:07.785Z,7.70
2023-04-20T04:59:34.196Z,11.30
2023-04-20T05:02:00.777Z,7.47
2023-04-20T05:04:27.333Z,7.77
2023-04-20T05:06:53.679Z,7.27
2023-04-20T05:09:20.336Z,9.03
2023-04-20T05:11:46.894Z,8.30
2023-04-20T05:14:13.213Z,7.73
2023-04-20T05:16:39.626Z,16.90
2023-04-20T05:19:06.095Z,13.87
2023-04-20T05:21:32.801Z,8.17
2023-04-20T05:23:59.215Z,8.83
2023-04-20T05:26:25.675Z,8.53
2023-04-20T05:28:52.107Z,9.20
2023-04-20T05:31:18.557Z,7.80
2023-04-20T05:33:44.987Z,8.00
2023-04-20T05:36:11.445Z,8.53
2023-04-20T05:38:37.858Z,8.53
2023-04-20T05:41:04.733Z,9.10
2023-04-20T05:43:31.109Z,8.33
2023-04-20T05:45:57.588Z,7.47
2023-04-20T05:48:24.072Z,8.87
2023-04-20T05:50:50.470Z,8.33
2023-04-20T05:53:16.780Z,21.50
2023-04-20T05:55:43.130Z,8.00
2023-04-20T05:58:09.467Z,8.23
2023-04-20T06:00:36.123Z,13.90
2023-04-20T06:03:03.420Z,7.43
2023-04-20T06:05:30.193Z,9.17
2023-04-20T06:07:56.547Z,8.00
2023-04-20T06:10:22.971Z,8.40
2023-04-20T06:12:49.366Z,9.93
2023-04-20T06:15:16.390Z,10.07
2023-04-20T06:17:42.802Z,17.07
2023-04-20T06:20:11.526Z,9.03
2023-04-20T06:22:45.273Z,8.70
2023-04-20T06:25:12.342Z,9.57
2023-04-20T06:27:39.315Z,9.63
2023-04-20T06:30:06.498Z,9.43
2023-04-20T06:32:33.046Z,10.13
2023-04-20T06:34:59.690Z,12.97
2023-04-20T06:37:26.075Z,10.90
2023-04-20T06:39:55.291Z,10.63
2023-04-20T06:42:22.212Z,9.90
2023-04-20T06:44:49.528Z,9.13
2023-04-20T06:47:15.910Z,10.77
2023-04-20T06:49:43.287Z,10.23
2023-04-20T06:52:09.609Z,8.90
2023-04-20T06:54:35.959Z,10.13
2023-04-20T06:57:02.320Z,10.27
2023-04-20T06:59:28.677Z,9.23
2023-04-20T07:01:55.050Z,10.33
2023-04-20T07:04:21.434Z,10.10
2023-04-20T07:06:49.705Z,10.27
2023-04-20T07:09:19.256Z,10.20
2023-04-20T07:11:45.864Z,9.67
2023-04-20T07:14:12.185Z,15.30
2023-04-20T07:16:38.836Z,10.63
2023-04-20T07:19:05.493Z,9.37
2023-04-20T07:21:32.178Z,9.07
2023-04-20T07:23:59.009Z,9.67
2023-04-20T07:26:25.711Z,10.03
2023-04-20T07:28:52.176Z,9.27
2023-04-20T07:31:18.641Z,9.67
2023-04-20T07:33:45.033Z,9.20
2023-04-20T07:36:11.445Z,9.90
2023-04-20T07:38:37.810Z,9.27
2023-04-20T07:41:04.158Z,9.63
2023-04-20T07:43:30.537Z,8.83
2023-04-20T07:45:56.930Z,9.27
2023-04-20T07:48:23.358Z,8.67
2023-04-20T07:50:49.690Z,10.07
2023-04-20T07:53:16.149Z,10.60
2023-04-20T07:55:42.479Z,9.57
2023-04-20T07:58:08.883Z,8.87
2023-04-20T08:00:35.355Z,9.37
2023-04-20T08:03:01.915Z,8.50
2023-04-20T08:05:28.698Z,9.33
2023-04-20T08:07:55.234Z,8.87
2023-04-20T08:10:21.734Z,8.87
2023-04-20T08:12:51.136Z,9.13
2023-04-20T08:15:19.031Z,9.23
2023-04-20T08:17:45.521Z,9.23
2023-04-20T08:20:12.282Z,9.80
2023-04-20T08:22:39.564Z,9.37
2023-04-20T08:25:06.129Z,8.67
2023-04-20T08:27:32.463Z,10.73
2023-04-20T08:29:58.875Z,10.23
2023-04-20T08:32:26.534Z,9.60
2023-04-20T08:34:53.979Z,10.43
2023-04-20T08:37:20.320Z,10.77
2023-04-20T08:39:46.766Z,11.00
2023-04-20T08:42:13.367Z,11.10
2023-04-20T08:44:39.840Z,10.70
2023-04-20T08:47:06.293Z,9.87
2023-04-20T08:49:32.918Z,10.03
2023-04-20T08:51:59.309Z,10.77
2023-04-20T08:54:25.952Z,13.47
2023-04-20T08:56:52.398Z,11.07
2023-04-20T08:59:18.750Z,10.83
2023-04-20T09:01:45.361Z,11.70
2023-04-20T09:04:17.089Z,10.47
2023-04-20T09:06:50.270Z,11.53
2023-04-20T09:09:17.268Z,10.77
2023-04-20T09:11:44.654Z,11.60
2023-04-20T09:14:13.698Z,10.97
2023-04-20T09:16:56.776Z,11.57
2023-04-20T09:19:24.536Z,13.43
2023-04-20T09:21:53.150Z,11.63
2023-04-20T09:24:20.981Z,13.63
2023-04-20T09:26:47.362Z,13.50
2023-04-20T09:29:22.146Z,13.80
2023-04-20T09:31:49.744Z,14.43
2023-04-20T09:34:16.649Z,15.87
2023-04-20T09:36:46.576Z,13.23
2023-04-20T09:39:17.742Z,11.30
2023-04-20T09:41:44.840Z,10.27
2023-04-20T09:44:12.429Z,9.47
2023-04-20T09:46:40.552Z,9.63
2023-04-20T09:49:09.636Z,9.23
2023-04-20T09:51:38.254Z,8.97
2023-04-20T09:54:06.121Z,8.13
2023-04-20T09:56:34.398Z,8.50
2023-04-20T09:59:02.021Z,8.13
2023-04-20T10:01:34.590Z,9.00
2023-04-20T10:04:03.500Z,8.70
2023-04-20T10:06:32.499Z,9.60
2023-04-20T10:09:02.052Z,9.70
2023-04-20T10:11:37.478Z,9.97
2023-04-20T10:14:24.846Z,11.07
2023-04-20T10:17:03.349Z,10.93
2023-04-20T10:19:44.202Z,9.87
2023-04-20T10:22:12.994Z,12.33
2023-04-20T10:24:40.057Z,12.53
2023-04-20T10:27:20.577Z,12.43
2023-04-20T10:29:47.297Z,14.07
2023-04-20T10:32:28.281Z,14.03
2023-04-20T10:35:06.679Z,13.97
2023-04-20T10:37:33.936Z,13.87
2023-04-20T10:40:01.107Z,13.77
2023-04-20T10:42:29.374Z,14.17
2023-04-20T10:44:55.785Z,14.53
2023-04-20T10:47:30.138Z,14.43
2023-04-20T10:50:13.936Z,14.93
2023-04-20T10:52:42.125Z,12.60
2023-04-20T10:55:22.965Z,10.77
2023-04-20T10:57:50.705Z,10.60
2023-04-20T11:00:22.362Z,9.60
2023-04-20T11:02:59.414Z,10.07
2023-04-20T11:05:27.540Z,9.73
2023-04-20T11:07:55.594Z,9.70
2023-04-20T11:10:25.010Z,10.57
2023-04-20T11:12:51.894Z,9.20
2023-04-20T11:15:18.456Z,7.80
2023-04-20T11:17:46.639Z,7.17
2023-04-20T11:20:16.805Z,8.37
2023-04-20T11:22:44.339Z,11.03
2023-04-20T11:25:12.309Z,8.10
2023-04-20T11:27:39.508Z,9.03
2023-04-20T11:30:09.778Z,7.60
2023-04-20T11:32:36.577Z,8.10
2023-04-20T11:35:07.816Z,7.40
2023-04-20T11:37:54.661Z,7.20
2023-04-20T11:40:21.183Z,7.30
2023-04-20T11:42:47.525Z,9.00
2023-04-20T11:45:13.878Z,8.20
2023-04-20T11:47:40.863Z,8.67
2023-04-20T11:50:08.604Z,8.60
2023-04-20T11:52:35.126Z,7.47
2023-04-20T11:55:01.643Z,7.47
2023-04-20T11:57:27.973Z,7.60
2023-04-20T11:59:54.344Z,7.23
2023-04-20T12:02:20.823Z,7.57
2023-04-20T12:04:47.777Z,8.50
2023-04-20T12:07:14.353Z,7.83
2023-04-20T12:09:41.129Z,8.47
2023-04-20T12:12:08.688Z,9.43
2023-04-20T12:14:35.150Z,8.60
2023-04-20T12:17:02.388Z,9.27
2023-04-20T12:19:28.747Z,9.13
2023-04-20T12:21:55.560Z,8.97
2023-04-20T12:24:22.808Z,9.40
2023-04-20T12:26:49.209Z,10.70
2023-04-20T12:29:16.481Z,10.73
2023-04-20T12:31:43.114Z,11.07
2023-04-20T12:34:09.532Z,9.97
2023-04-20T12:36:36.467Z,9.67
2023-04-20T12:39:03.942Z,10.00
2023-04-20T12:41:30.534Z,10.30
2023-04-20T12:43:56.846Z,9.97
2023-04-20T12:46:23.264Z,10.83
2023-04-20T12:48:49.662Z,10.57
2023-04-20T12:51:16.154Z,12.17
2023-04-20T12:53:42.560Z,10.97
2023-04-20T12:56:08.912Z,9.83
2023-04-20T12:58:35.254Z,9.63
2023-04-20T13:01:01.731Z,11.27
2023-04-20T13:03:28.341Z,11.73
2023-04-20T13:05:54.816Z,11.33
2023-04-20T13:08:21.597Z,10.57
2023-04-20T13:10:48.181Z,11.73
2023-04-20T13:13:14.600Z,11.87
2023-04-20T13:15:41.225Z,10.03
2023-04-20T13:18:09.471Z,11.63
2023-04-20T13:20:36.071Z,10.83
2023-04-20T13:23:03.867Z,11.50
2023-04-20T13:25:33.260Z,11.97
2023-04-20T13:28:01.361Z,12.27
2023-04-20T13:30:27.755Z,11.83
2023-04-20T13:32:54.179Z,17.30
2023-04-20T13:35:20.614Z,12.53
2023-04-20T13:37:47.440Z,12.50
2023-04-20T13:40:14.225Z,17.37
2023-04-20T13:42:40.762Z,12.93
2023-04-20T13:45:07.797Z,12.50
2023-04-20T13:47:34.447Z,11.83
2023-04-20T13:50:02.295Z,11.27
2023-04-20T13:52:28.946Z,13.67
2023-04-20T13:54:55.304Z,13.57
2023-04-20T13:57:21.647Z,13.93
2023-04-20T13:59:48.012Z,17.37
2023-04-20T14:02:14.439Z,13.83
2023-04-20T14:04:40.939Z,13.97
2023-04-20T14:07:07.325Z,13.37
2023-04-20T14:09:33.709Z,14.40
2023-04-20T14:12:01.376Z,13.67
2023-04-20T14:14:27.731Z,12.27
2023-04-20T14:16:54.075Z,13.37
2023-04-20T14:19:20.410Z,13.57
2023-04-20T14:21:47.272Z,12.90
2023-04-20T14:24:14.287Z,12.43
2023-04-20T14:26:41.209Z,13.10
2023-04-20T14:29:07.654Z,12.03
2023-04-20T14:31:34.773Z,13.17
2023-04-20T14:34:01.321Z,12.50
2023-04-20T14:36:28.019Z,11.67
2023-04-20T14:38:55.403Z,12.73
2023-04-20T14:41:22.076Z,12.77
2023-04-20T14:43:48.401Z,13.10
2023-04-20T14:46:14.751Z,14.97
2023-04-20T14:48:41.206Z,13.53
2023-04-20T14:51:07.582Z,13.47
2023-04-20T14:53:33.904Z,13.37
2023-04-20T14:56:00.253Z,12.50
2023-04-20T14:58:26.580Z,12.10
2023-04-20T15:00:54.177Z,12.10
2023-04-20T15:03:20.920Z,11.87
2023-04-20T15:05:47.597Z,10.97
2023-04-20T15:08:14.526Z,10.60
2023-04-20T15:10:41.085Z,12.13
2023-04-20T15:13:07.606Z,10.83
2023-04-20T15:15:47.462Z,11.40
2023-04-20T15:18:15.813Z,13.07
2023-04-20T15:20:42.130Z,10.77
2023-04-20T15:23:08.752Z,10.17
2023-04-20T15:25:35.084Z,11.37
2023-04-20T15:28:01.567Z,11.27
2023-04-20T15:30:29.313Z,11.57
2023-04-20T15:32:55.754Z,11.80
2023-04-20T15:35:31.203Z,11.73
2023-04-20T15:37:57.961Z,10.97
2023-04-20T15:40:24.353Z,12.27
2023-04-20T15:42:51.430Z,12.27
2023-04-20T15:45:17.795Z,11.37
2023-04-20T15:47:44.380Z,11.70
2023-04-20T15:50:11.251Z,11.73
2023-04-20T15:52:37.657Z,11.97
2023-04-20T15:55:04.411Z,11.23
2023-04-20T15:57:31.297Z,11.23
2023-04-20T15:59:57.799Z,11.00
2023-04-20T16:02:24.364Z,11.37
2023-04-20T16:04:51.231Z,10.40
2023-04-20T16:07:17.666Z,10.10
2023-04-20T16:09:44.124Z,9.70
2023-04-20T16:12:10.556Z,9.40
2023-04-20T16:14:36.910Z,10.00
2023-04-20T16:17:03.298Z,10.07
2023-04-20T16:19:30.259Z,9.37
2023-04-20T16:21:56.605Z,9.50
2023-04-20T16:24:23.023Z,10.27
2023-04-20T16:26:49.374Z,11.13
2023-04-20T16:29:16.046Z,11.10
2023-04-20T16:31:42.505Z,10.47
2023-04-20T16:34:08.957Z,9.53
2023-04-20T16:36:35.282Z,9.77
2023-04-20T16:39:05.676Z,9.47
2023-04-20T16:41:32.325Z,9.20
2023-04-20T16:43:58.669Z,9.37
2023-04-20T16:46:25.113Z,9.73
2023-04-20T16:48:51.870Z,9.27
2023-04-20T16:51:18.222Z,10.63
2023-04-20T16:53:45.230Z,14.00
2023-04-20T16:56:12.162Z,9.73
2023-04-20T16:58:38.605Z,10.90
2023-04-20T17:01:06.882Z,13.23
2023-04-20T17:03:33.370Z,14.07
2023-04-20T17:06:06.993Z,9.90
2023-04-20T17:08:33.840Z,11.97
2023-04-20T17:11:01.688Z,9.97
2023-04-20T17:13:28.014Z,10.07
2023-04-20T17:15:54.357Z,10.03
2023-04-20T17:18:20.737Z,10.30
2023-04-20T17:20:47.815Z,10.97
2023-04-20T17:23:19.886Z,10.40
2023-04-20T17:25:47.292Z,9.80
2023-04-20T17:28:14.068Z,16.43
2023-04-20T17:30:41.356Z,9.53
2023-04-20T17:33:12.191Z,9.13
2023-04-20T17:35:39.283Z,9.63
2023-04-20T17:38:05.827Z,9.13
2023-04-20T17:40:32.367Z,9.63
2023-04-20T17:42:58.708Z,9.43
2023-04-20T17:45:25.166Z,9.07
2023-04-20T17:47:53.468Z,9.40
2023-04-20T17:50:20.429Z,10.73
2023-04-20T17:52:46.796Z,10.57
2023-04-20T17:55:13.234Z,10.73
2023-04-20T17:57:40.009Z,10.83
2023-04-20T18:00:08.490Z,10.87
2023-04-20T18:02:41.272Z,10.30
2023-04-20T18:05:08.286Z,11.57
2023-04-20T18:07:34.722Z,11.27
2023-04-20T18:10:01.305Z,11.10
2023-04-20T18:12:27.654Z,10.53
2023-04-20T18:14:54.001Z,12.27
2023-04-20T18:17:20.371Z,11.17
2023-04-20T18:19:46.789Z,11.07
2023-04-20T18:22:13.113Z,12.93
2023-04-20T18:24:39.454Z,12.00
2023-04-20T18:27:05.883Z,11.73
2023-04-20T18:29:32.275Z,11.67
2023-04-20T18:32:01.707Z,13.60
2023-04-20T18:34:30.914Z,12.97
2023-04-20T18:36:58.404Z,13.73
2023-04-20T18:39:26.146Z,13.63
2023-04-20T18:41:52.487Z,12.80
2023-04-20T18:44:19.183Z,13.30
2023-04-20T18:46:46.335Z,12.40
2023-04-20T18:49:12.734Z,13.60
2023-04-20T18:51:39.118Z,13.17
2023-04-20T18:54:05.583Z,13.80
2023-04-20T18:56:31.996Z,14.90
2023-04-20T18:58:59.363Z,13.70
2023-04-20T19:01:26.011Z,13.57
2023-04-20T19:03:52.696Z,13.73
2023-04-20T19:06:19.222Z,14.50
2023-04-20T19:08:45.562Z,14.33
2023-04-20T19:11:11.891Z,14.27
2023-04-20T19:13:44.039Z,14.77
2023-04-20T19:16:11.507Z,14.77
2023-04-20T19:18:38.633Z,14.37
2023-04-20T19:21:05.343Z,14.90
2023-04-20T19:23:31.723Z,14.93
2023-04-20T19:25:58.102Z,15.40
2023-04-20T19:28:24.516Z,15.50
2023-04-20T19:30:50.951Z,15.67
2023-04-20T19:33:17.377Z,15.77
2023-04-20T19:35:48.078Z,15.80
2023-04-20T19:38:14.396Z,18.67
2023-04-20T19:40:40.738Z,17.53
2023-04-20T19:43:07.140Z,16.83
2023-04-20T19:45:33.553Z,16.33
2023-04-20T19:47:59.980Z,16.57
2023-04-20T19:50:26.618Z,17.77
2023-04-20T19:52:53.246Z,17.30
2023-04-20T19:55:19.685Z,19.23
2023-04-20T19:57:46.033Z,19.57
2023-04-20T20:00:13.249Z,19.03
2023-04-20T20:02:40.517Z,22.43
2023-04-20T20:05:07.500Z,19.67
2023-04-20T20:07:34.600Z,23.60
2023-04-20T20:10:01.339Z,20.43
2023-04-20T20:12:27.697Z,20.13
2023-04-20T20:14:54.019Z,21.57
2023-04-20T20:17:20.390Z,21.20
2023-04-20T20:19:46.806Z,21.73
2023-04-20T20:22:13.260Z,21.80
2023-04-20T20:24:39.663Z,21.40
2023-04-20T20:27:06.042Z,22.13
2023-04-20T20:29:32.552Z,21.73
2023-04-20T20:31:58.992Z,22.63
2023-04-20T20:34:25.582Z,23.53
2023-04-20T20:36:53.112Z,25.00
2023-04-20T20:39:19.672Z,24.50
2023-04-20T20:41:46.432Z,23.83
2023-04-20T20:44:12.921Z,22.93
2023-04-20T20:46:39.564Z,26.90
2023-04-20T20:49:06.019Z,33.23
2023-04-20T20:51:32.941Z,22.73
2023-04-20T20:53:59.311Z,32.30
2023-04-20T20:56:26.150Z,26.97
2023-04-20T20:58:53.950Z,28.83
2023-04-20T21:01:20.780Z,21.93
2023-04-20T21:03:49.800Z,24.20
2023-04-20T21:06:16.926Z,27.63
2023-04-20T21:08:43.428Z,22.33
2023-04-20T21:11:09.808Z,23.27
2023-04-20T21:13:36.300Z,24.07
2023-04-20T21:16:03.110Z,23.77
2023-04-20T21:18:29.488Z,24.37
2023-04-20T21:20:55.822Z,25.13
2023-04-20T21:23:22.167Z,25.03
2023-04-20T21:25:48.479Z,22.63
2023-04-20T21:28:14.800Z,24.40
2023-04-20T21:30:41.137Z,24.10
2023-04-20T21:33:08.140Z,22.83
2023-04-20T21:35:34.804Z,22.90
2023-04-20T21:38:01.199Z,22.37
2023-04-20T21:40:27.675Z,21.83
2023-04-20T21:42:54.053Z,20.90
2023-04-20T21:45:20.558Z,24.20
2023-04-20T21:47:46.917Z,22.27
2023-04-20T21:50:13.457Z,23.10
2023-04-20T21:52:39.846Z,21.93
2023-04-20T21:55:06.953Z,21.40
2023-04-20T21:57:33.308Z,19.73
2023-04-20T21:59:59.673Z,24.07
2023-04-20T22:02:26.203Z,20.13
2023-04-20T22:04:52.905Z,21.97
2023-04-20T22:07:19.496Z,21.40
2023-04-20T22:09:45.866Z,20.20
2023-04-20T22:12:12.218Z,24.90
2023-04-20T22:14:38.579Z,23.27
2023-04-20T22:17:04.956Z,20.70
2023-04-20T22:19:31.366Z,24.17
2023-04-20T22:21:57.724Z,25.40
2023-04-20T22:24:24.120Z,21.50
2023-04-20T22:26:50.495Z,22.23
2023-04-20T22:29:16.997Z,21.90
2023-04-20T22:31:43.608Z,19.77
2023-04-20T22:34:09.984Z,25.90
2023-04-20T22:36:36.313Z,22.47
2023-04-20T22:39:02.714Z,21.93
2023-04-20T22:41:29.055Z,22.90
2023-04-20T22:43:55.373Z,23.90
2023-04-20T22:46:21.888Z,22.97
2023-04-20T22:48:51.032Z,21.80
2023-04-20T22:51:17.466Z,22.30
2023-04-20T22:53:44.517Z,22.93
2023-04-20T22:56:10.898Z,25.23
2023-04-20T22:58:37.298Z,21.83
2023-04-20T23:01:03.728Z,22.73
2023-04-20T23:03:30.991Z,25.93
2023-04-20T23:05:58.934Z,26.10
2023-04-20T23:08:25.993Z,22.77
2023-04-20T23:10:55.481Z,23.40
2023-04-20T23:13:22.690Z,20.93
2023-04-20T23:15:49.658Z,29.90
2023-04-20T23:18:16.054Z,30.83
2023-04-20T23:20:42.418Z,26.13
2023-04-20T23:23:10.571Z,21.10
2023-04-20T23:25:37.454Z,28.60
2023-04-20T23:28:03.905Z,22.47
2023-04-20T23:30:30.284Z,29.40
2023-04-20T23:32:56.688Z,46.13
2023-04-20T23:35:23.157Z,27.33
2023-04-20T23:37:50.156Z,27.47
2023-04-20T23:40:16.692Z,31.03
2023-04-20T23:42:43.035Z,31.03
2023-04-20T23:45:09.828Z,28.90
2023-04-20T23:47:36.215Z,34.30
2023-04-20T23:50:02.631Z,30.23
2023-04-20T23:52:29.025Z,35.57
2023-04-20T23:54:55.410Z,32.37
2023-04-20T23:57:21.745Z,29.17
2023-04-20T23:59:48.134Z,33.57
